sensor_id;sensor_type;location;lat;lon;timestamp;temperature;humidity
20929;DHT22;21895;47.072;15.132;2022-09-13T00:01:21;12.80;99.90
20929;DHT22;21895;47.072;15.132;2022-09-13T00:03:47;12.60;99.90
20929;DHT22;21895;47.072;15.132;2022-09-13T00:06:16;12.60;99.90
20929;DHT22;21895;47.072;15.132;2022-09-13T00:08:45;12.50;99.90
20929;DHT22;21895;47.072;15.132;2022-09-13T00:11:21;12.50;99.90
20929;DHT22;21895;47.072;15.132;2022-09-13T00:13:50;12.50;99.90
20929;DHT22;21895;47.072;15.132;2022-09-13T00:16:20;12.60;99.90
20929;DHT22;21895;47.072;15.132;2022-09-13T00:18:50;12.40;99.90
20929;DHT22;21895;47.072;15.132;2022-09-13T00:21:18;12.40;99.90
20929;DHT22;21895;47.072;15.132;2022-09-13T00:23:48;12.30;99.90
20929;DHT22;21895;47.072;15.132;2022-09-13T00:26:20;12.30;99.90
20929;DHT22;21895;47.072;15.132;2022-09-13T00:28:54;12.30;99.90
20929;DHT22;21895;47.072;15.132;2022-09-13T00:31:24;12.30;99.90
20929;DHT22;21895;47.072;15.132;2022-09-13T00:33:53;12.20;99.90
20929;DHT22;21895;47.072;15.132;2022-09-13T00:36:20;12.00;99.90
20929;DHT22;21895;47.072;15.132;2022-09-13T00:38:46;12.00;99.90
20929;DHT22;21895;47.072;15.132;2022-09-13T00:41:15;12.10;99.90
20929;DHT22;21895;47.072;15.132;2022-09-13T00:43:49;12.30;99.90
20929;DHT22;21895;47.072;15.132;2022-09-13T00:47:19;12.50;99.90
20929;DHT22;21895;47.072;15.132;2022-09-13T00:49:53;12.40;99.90
20929;DHT22;21895;47.072;15.132;2022-09-13T00:52:28;12.30;99.90
20929;DHT22;21895;47.072;15.132;2022-09-13T00:55:05;12.30;99.90
20929;DHT22;21895;47.072;15.132;2022-09-13T00:57:39;12.30;99.90
20929;DHT22;21895;47.072;15.132;2022-09-13T01:00:12;12.30;99.90
20929;DHT22;21895;47.072;15.132;2022-09-13T01:02:54;12.20;99.90
20929;DHT22;21895;47.072;15.132;2022-09-13T01:05:32;12.20;99.90
20929;DHT22;21895;47.072;15.132;2022-09-13T01:08:05;12.00;99.90
20929;DHT22;21895;47.072;15.132;2022-09-13T01:10:41;11.80;99.90
20929;DHT22;21895;47.072;15.132;2022-09-13T01:13:20;11.80;99.90
20929;DHT22;21895;47.072;15.132;2022-09-13T01:15:49;11.80;99.90
20929;DHT22;21895;47.072;15.132;2022-09-13T01:18:17;11.80;99.90
20929;DHT22;21895;47.072;15.132;2022-09-13T01:30:53;11.70;99.90
20929;DHT22;21895;47.072;15.132;2022-09-13T01:34:00;11.50;99.90
20929;DHT22;21895;47.072;15.132;2022-09-13T01:45:37;11.60;99.90
20929;DHT22;21895;47.072;15.132;2022-09-13T01:49:32;11.50;99.90
20929;DHT22;21895;47.072;15.132;2022-09-13T01:52:56;11.50;99.90
20929;DHT22;21895;47.072;15.132;2022-09-13T01:55:51;11.60;99.90
20929;DHT22;21895;47.072;15.132;2022-09-13T01:58:44;11.40;99.90
20929;DHT22;21895;47.072;15.132;2022-09-13T02:01:22;11.30;99.90
20929;DHT22;21895;47.072;15.132;2022-09-13T02:08:20;11.30;99.90
20929;DHT22;21895;47.072;15.132;2022-09-13T02:11:12;11.20;99.90
20929;DHT22;21895;47.072;15.132;2022-09-13T02:17:19;11.10;99.90
20929;DHT22;21895;47.072;15.132;2022-09-13T02:20:24;11.10;99.90
20929;DHT22;21895;47.072;15.132;2022-09-13T02:22:57;11.00;99.90
20929;DHT22;21895;47.072;15.132;2022-09-13T02:25:30;11.10;99.90
20929;DHT22;21895;47.072;15.132;2022-09-13T02:28:04;11.00;99.90
20929;DHT22;21895;47.072;15.132;2022-09-13T02:30:37;11.00;99.90
20929;DHT22;21895;47.072;15.132;2022-09-13T02:33:20;11.00;99.90
20929;DHT22;21895;47.072;15.132;2022-09-13T02:35:58;10.80;99.90
20929;DHT22;21895;47.072;15.132;2022-09-13T02:38:51;10.60;99.90
20929;DHT22;21895;47.072;15.132;2022-09-13T02:41:34;10.70;99.90
20929;DHT22;21895;47.072;15.132;2022-09-13T02:44:18;10.80;99.90
20929;DHT22;21895;47.072;15.132;2022-09-13T02:47:57;10.70;99.90
20929;DHT22;21895;47.072;15.132;2022-09-13T02:54:31;10.50;99.90
20929;DHT22;21895;47.072;15.132;2022-09-13T03:00:08;10.60;99.90
20929;DHT22;21895;47.072;15.132;2022-09-13T03:02:36;10.70;99.90
20929;DHT22;21895;47.072;15.132;2022-09-13T03:05:05;10.70;99.90
20929;DHT22;21895;47.072;15.132;2022-09-13T03:07:32;10.80;99.90
20929;DHT22;21895;47.072;15.132;2022-09-13T03:10:04;10.70;99.90
20929;DHT22;21895;47.072;15.132;2022-09-13T03:15:23;10.60;99.90
20929;DHT22;21895;47.072;15.132;2022-09-13T03:19:51;10.40;99.90
20929;DHT22;21895;47.072;15.132;2022-09-13T03:23:02;10.50;99.90
20929;DHT22;21895;47.072;15.132;2022-09-13T03:26:56;10.50;99.90
20929;DHT22;21895;47.072;15.132;2022-09-13T03:29:54;10.50;99.90
20929;DHT22;21895;47.072;15.132;2022-09-13T03:32:40;10.50;99.90
20929;DHT22;21895;47.072;15.132;2022-09-13T03:35:53;10.50;99.90
20929;DHT22;21895;47.072;15.132;2022-09-13T03:40:06;10.20;99.90
20929;DHT22;21895;47.072;15.132;2022-09-13T03:43:59;10.20;99.90
20929;DHT22;21895;47.072;15.132;2022-09-13T03:46:38;10.30;99.90
20929;DHT22;21895;47.072;15.132;2022-09-13T03:49:13;10.40;99.90
20929;DHT22;21895;47.072;15.132;2022-09-13T03:51:47;10.50;99.90
20929;DHT22;21895;47.072;15.132;2022-09-13T03:54:25;10.60;99.90
20929;DHT22;21895;47.072;15.132;2022-09-13T03:57:17;10.40;99.90
20929;DHT22;21895;47.072;15.132;2022-09-13T03:59:49;10.40;99.90
20929;DHT22;21895;47.072;15.132;2022-09-13T04:02:21;10.60;99.90
20929;DHT22;21895;47.072;15.132;2022-09-13T04:04:50;10.60;99.90
20929;DHT22;21895;47.072;15.132;2022-09-13T04:07:19;10.50;99.90
20929;DHT22;21895;47.072;15.132;2022-09-13T04:09:47;10.50;99.90
20929;DHT22;21895;47.072;15.132;2022-09-13T04:12:17;10.60;99.90
20929;DHT22;21895;47.072;15.132;2022-09-13T04:14:44;10.60;99.90
20929;DHT22;21895;47.072;15.132;2022-09-13T04:17:11;10.50;99.90
20929;DHT22;21895;47.072;15.132;2022-09-13T04:19:38;10.60;99.90
20929;DHT22;21895;47.072;15.132;2022-09-13T04:22:04;10.50;99.90
20929;DHT22;21895;47.072;15.132;2022-09-13T04:24:31;10.30;99.90
20929;DHT22;21895;47.072;15.132;2022-09-13T04:26:58;10.20;99.90
20929;DHT22;21895;47.072;15.132;2022-09-13T04:29:26;10.20;99.90
20929;DHT22;21895;47.072;15.132;2022-09-13T04:31:53;10.20;99.90
20929;DHT22;21895;47.072;15.132;2022-09-13T04:34:20;10.30;99.90
20929;DHT22;21895;47.072;15.132;2022-09-13T04:36:49;10.10;99.90
20929;DHT22;21895;47.072;15.132;2022-09-13T04:39:18;10.10;99.90
20929;DHT22;21895;47.072;15.132;2022-09-13T04:41:46;10.30;99.90
20929;DHT22;21895;47.072;15.132;2022-09-13T04:44:15;10.30;99.90
20929;DHT22;21895;47.072;15.132;2022-09-13T04:46:44;10.30;99.90
20929;DHT22;21895;47.072;15.132;2022-09-13T04:49:13;10.30;99.90
20929;DHT22;21895;47.072;15.132;2022-09-13T04:51:40;10.20;99.90
20929;DHT22;21895;47.072;15.132;2022-09-13T04:54:08;10.20;99.90
20929;DHT22;21895;47.072;15.132;2022-09-13T04:56:41;10.20;99.90
20929;DHT22;21895;47.072;15.132;2022-09-13T04:59:12;10.10;99.90
20929;DHT22;21895;47.072;15.132;2022-09-13T05:01:39;10.10;99.90
20929;DHT22;21895;47.072;15.132;2022-09-13T05:04:06;10.10;99.90
20929;DHT22;21895;47.072;15.132;2022-09-13T05:06:34;10.10;99.90
20929;DHT22;21895;47.072;15.132;2022-09-13T05:09:01;10.20;99.90
20929;DHT22;21895;47.072;15.132;2022-09-13T05:11:28;10.30;99.90
20929;DHT22;21895;47.072;15.132;2022-09-13T05:13:57;10.30;99.90
20929;DHT22;21895;47.072;15.132;2022-09-13T05:16:27;10.40;99.90
20929;DHT22;21895;47.072;15.132;2022-09-13T05:18:56;10.40;99.90
20929;DHT22;21895;47.072;15.132;2022-09-13T05:21:23;10.60;99.90
20929;DHT22;21895;47.072;15.132;2022-09-13T05:23:51;10.70;99.90
20929;DHT22;21895;47.072;15.132;2022-09-13T05:26:19;10.80;99.90
20929;DHT22;21895;47.072;15.132;2022-09-13T05:28:47;10.90;99.90
20929;DHT22;21895;47.072;15.132;2022-09-13T05:31:26;11.00;99.90
20929;DHT22;21895;47.072;15.132;2022-09-13T05:34:00;11.00;99.90
20929;DHT22;21895;47.072;15.132;2022-09-13T05:36:28;11.00;99.90
20929;DHT22;21895;47.072;15.132;2022-09-13T05:38:55;11.20;99.90
20929;DHT22;21895;47.072;15.132;2022-09-13T05:41:44;11.40;99.90
20929;DHT22;21895;47.072;15.132;2022-09-13T05:44:11;11.50;99.90
20929;DHT22;21895;47.072;15.132;2022-09-13T05:46:40;11.60;99.90
20929;DHT22;21895;47.072;15.132;2022-09-13T05:49:07;11.80;99.90
20929;DHT22;21895;47.072;15.132;2022-09-13T05:51:34;12.10;99.90
20929;DHT22;21895;47.072;15.132;2022-09-13T05:54:01;12.30;99.90
20929;DHT22;21895;47.072;15.132;2022-09-13T05:56:28;12.50;99.90
20929;DHT22;21895;47.072;15.132;2022-09-13T05:58:56;12.60;99.90
20929;DHT22;21895;47.072;15.132;2022-09-13T06:01:27;12.90;99.90
20929;DHT22;21895;47.072;15.132;2022-09-13T06:03:56;13.00;99.90
20929;DHT22;21895;47.072;15.132;2022-09-13T06:06:24;13.20;99.90
20929;DHT22;21895;47.072;15.132;2022-09-13T06:08:52;13.40;99.90
20929;DHT22;21895;47.072;15.132;2022-09-13T06:11:19;13.60;99.90
20929;DHT22;21895;47.072;15.132;2022-09-13T06:13:46;13.90;99.90
20929;DHT22;21895;47.072;15.132;2022-09-13T06:16:13;14.30;99.90
20929;DHT22;21895;47.072;15.132;2022-09-13T06:18:41;14.70;99.90
20929;DHT22;21895;47.072;15.132;2022-09-13T06:21:10;14.90;99.90
20929;DHT22;21895;47.072;15.132;2022-09-13T06:23:46;15.00;99.90
20929;DHT22;21895;47.072;15.132;2022-09-13T06:26:15;15.20;99.90
20929;DHT22;21895;47.072;15.132;2022-09-13T06:28:51;15.30;99.90
20929;DHT22;21895;47.072;15.132;2022-09-13T06:31:22;15.40;99.90
20929;DHT22;21895;47.072;15.132;2022-09-13T06:33:55;15.50;99.90
20929;DHT22;21895;47.072;15.132;2022-09-13T06:36:25;15.50;99.90
20929;DHT22;21895;47.072;15.132;2022-09-13T06:38:51;15.50;99.90
20929;DHT22;21895;47.072;15.132;2022-09-13T06:41:20;15.60;99.90
20929;DHT22;21895;47.072;15.132;2022-09-13T06:43:56;15.80;99.90
20929;DHT22;21895;47.072;15.132;2022-09-13T06:46:25;16.10;99.90
20929;DHT22;21895;47.072;15.132;2022-09-13T06:48:53;16.20;99.90
20929;DHT22;21895;47.072;15.132;2022-09-13T06:51:22;16.30;99.90
20929;DHT22;21895;47.072;15.132;2022-09-13T06:53:51;16.50;99.90
20929;DHT22;21895;47.072;15.132;2022-09-13T06:56:20;16.60;99.90
20929;DHT22;21895;47.072;15.132;2022-09-13T06:58:50;16.60;99.90
20929;DHT22;21895;47.072;15.132;2022-09-13T07:01:21;16.80;99.90
20929;DHT22;21895;47.072;15.132;2022-09-13T07:06:49;17.10;99.90
20929;DHT22;21895;47.072;15.132;2022-09-13T07:09:18;17.20;99.90
20929;DHT22;21895;47.072;15.132;2022-09-13T07:11:48;17.30;99.90
20929;DHT22;21895;47.072;15.132;2022-09-13T07:14:21;17.50;99.90
20929;DHT22;21895;47.072;15.132;2022-09-13T07:16:50;17.60;99.90
20929;DHT22;21895;47.072;15.132;2022-09-13T07:19:22;17.90;99.90
20929;DHT22;21895;47.072;15.132;2022-09-13T07:21:52;18.10;99.90
20929;DHT22;21895;47.072;15.132;2022-09-13T07:24:20;18.20;99.90
20929;DHT22;21895;47.072;15.132;2022-09-13T07:26:47;18.30;99.90
20929;DHT22;21895;47.072;15.132;2022-09-13T07:29:17;18.40;99.90
20929;DHT22;21895;47.072;15.132;2022-09-13T07:31:52;18.40;99.90
20929;DHT22;21895;47.072;15.132;2022-09-13T07:34:24;18.50;99.90
20929;DHT22;21895;47.072;15.132;2022-09-13T07:36:51;18.70;99.90
20929;DHT22;21895;47.072;15.132;2022-09-13T07:39:18;18.90;99.90
20929;DHT22;21895;47.072;15.132;2022-09-13T07:41:49;19.10;99.90
20929;DHT22;21895;47.072;15.132;2022-09-13T07:44:16;19.20;99.90
20929;DHT22;21895;47.072;15.132;2022-09-13T07:46:42;19.30;99.90
20929;DHT22;21895;47.072;15.132;2022-09-13T07:49:13;19.40;99.90
20929;DHT22;21895;47.072;15.132;2022-09-13T07:51:44;19.50;99.90
20929;DHT22;21895;47.072;15.132;2022-09-13T07:54:13;19.60;99.90
20929;DHT22;21895;47.072;15.132;2022-09-13T07:56:41;19.60;99.90
20929;DHT22;21895;47.072;15.132;2022-09-13T07:59:16;19.70;99.90
20929;DHT22;21895;47.072;15.132;2022-09-13T08:01:47;19.90;99.90
20929;DHT22;21895;47.072;15.132;2022-09-13T08:04:22;19.90;99.90
20929;DHT22;21895;47.072;15.132;2022-09-13T08:06:50;20.10;99.90
20929;DHT22;21895;47.072;15.132;2022-09-13T08:09:16;20.20;99.90
20929;DHT22;21895;47.072;15.132;2022-09-13T08:11:48;20.30;99.90
20929;DHT22;21895;47.072;15.132;2022-09-13T08:14:19;20.40;99.90
20929;DHT22;21895;47.072;15.132;2022-09-13T08:16:47;20.60;99.90
20929;DHT22;21895;47.072;15.132;2022-09-13T08:19:15;20.70;99.90
20929;DHT22;21895;47.072;15.132;2022-09-13T08:21:44;20.80;99.50
20929;DHT22;21895;47.072;15.132;2022-09-13T08:24:18;20.80;99.60
20929;DHT22;21895;47.072;15.132;2022-09-13T08:26:46;20.90;98.80
20929;DHT22;21895;47.072;15.132;2022-09-13T08:29:14;21.10;99.50
20929;DHT22;21895;47.072;15.132;2022-09-13T08:31:41;21.10;98.80
20929;DHT22;21895;47.072;15.132;2022-09-13T08:34:15;21.20;98.90
20929;DHT22;21895;47.072;15.132;2022-09-13T08:36:43;21.20;98.00
20929;DHT22;21895;47.072;15.132;2022-09-13T08:39:10;21.50;97.90
20929;DHT22;21895;47.072;15.132;2022-09-13T08:48:00;21.30;98.20
20929;DHT22;21895;47.072;15.132;2022-09-13T08:50:32;21.60;97.30
20929;DHT22;21895;47.072;15.132;2022-09-13T08:53:11;21.50;96.40
20929;DHT22;21895;47.072;15.132;2022-09-13T08:58:16;21.40;96.40
20929;DHT22;21895;47.072;15.132;2022-09-13T09:07:09;22.10;95.70
20929;DHT22;21895;47.072;15.132;2022-09-13T09:10:10;22.40;95.70
20929;DHT22;21895;47.072;15.132;2022-09-13T09:13:44;22.60;95.50
20929;DHT22;21895;47.072;15.132;2022-09-13T09:17:28;22.80;94.50
20929;DHT22;21895;47.072;15.132;2022-09-13T09:20:45;22.70;95.00
20929;DHT22;21895;47.072;15.132;2022-09-13T09:23:16;22.70;94.80
20929;DHT22;21895;47.072;15.132;2022-09-13T09:25:56;22.90;93.90
20929;DHT22;21895;47.072;15.132;2022-09-13T09:29:31;22.90;93.90
20929;DHT22;21895;47.072;15.132;2022-09-13T09:37:26;22.90;94.10
20929;DHT22;21895;47.072;15.132;2022-09-13T09:39:58;22.80;94.00
20929;DHT22;21895;47.072;15.132;2022-09-13T09:42:43;22.60;95.40
20929;DHT22;21895;47.072;15.132;2022-09-13T09:45:34;22.80;94.00
20929;DHT22;21895;47.072;15.132;2022-09-13T09:48:07;22.90;94.40
20929;DHT22;21895;47.072;15.132;2022-09-13T09:50:46;22.90;93.80
20929;DHT22;21895;47.072;15.132;2022-09-13T09:53:33;23.00;94.10
20929;DHT22;21895;47.072;15.132;2022-09-13T09:56:53;23.00;94.30
20929;DHT22;21895;47.072;15.132;2022-09-13T09:59:31;23.10;94.00
20929;DHT22;21895;47.072;15.132;2022-09-13T10:01:59;23.20;93.30
20929;DHT22;21895;47.072;15.132;2022-09-13T10:04:32;23.30;93.40
20929;DHT22;21895;47.072;15.132;2022-09-13T10:08:05;23.20;93.50
20929;DHT22;21895;47.072;15.132;2022-09-13T10:10:43;23.30;92.90
20929;DHT22;21895;47.072;15.132;2022-09-13T10:13:20;23.20;93.10
20929;DHT22;21895;47.072;15.132;2022-09-13T10:16:24;23.20;93.30
20929;DHT22;21895;47.072;15.132;2022-09-13T10:18:52;23.10;94.00
20929;DHT22;21895;47.072;15.132;2022-09-13T10:21:24;23.30;93.90
20929;DHT22;21895;47.072;15.132;2022-09-13T10:24:15;23.50;93.30
20929;DHT22;21895;47.072;15.132;2022-09-13T10:26:44;23.40;92.90
20929;DHT22;21895;47.072;15.132;2022-09-13T10:29:15;23.60;93.80
20929;DHT22;21895;47.072;15.132;2022-09-13T10:31:46;23.60;92.70
20929;DHT22;21895;47.072;15.132;2022-09-13T10:34:27;23.60;93.20
20929;DHT22;21895;47.072;15.132;2022-09-13T10:37:21;23.50;94.30
20929;DHT22;21895;47.072;15.132;2022-09-13T10:40:10;23.70;93.70
20929;DHT22;21895;47.072;15.132;2022-09-13T10:42:56;23.60;93.10
20929;DHT22;21895;47.072;15.132;2022-09-13T10:45:26;23.60;93.40
20929;DHT22;21895;47.072;15.132;2022-09-13T10:48:12;23.50;93.60
20929;DHT22;21895;47.072;15.132;2022-09-13T10:51:03;23.60;93.50
20929;DHT22;21895;47.072;15.132;2022-09-13T10:53:41;23.90;93.20
20929;DHT22;21895;47.072;15.132;2022-09-13T10:56:29;23.80;93.40
20929;DHT22;21895;47.072;15.132;2022-09-13T10:59:24;23.80;93.30
20929;DHT22;21895;47.072;15.132;2022-09-13T11:09:15;24.10;92.90
20929;DHT22;21895;47.072;15.132;2022-09-13T11:15:00;24.60;91.70
20929;DHT22;21895;47.072;15.132;2022-09-13T11:18:40;24.70;92.10
20929;DHT22;21895;47.072;15.132;2022-09-13T11:29:11;24.40;92.20
20929;DHT22;21895;47.072;15.132;2022-09-13T11:32:56;24.20;92.40
20929;DHT22;21895;47.072;15.132;2022-09-13T11:47:23;24.60;92.20
20929;DHT22;21895;47.072;15.132;2022-09-13T11:51:41;24.90;92.10
20929;DHT22;21895;47.072;15.132;2022-09-13T11:55:57;25.00;91.90
20929;DHT22;21895;47.072;15.132;2022-09-13T11:58:44;24.90;92.50
20929;DHT22;21895;47.072;15.132;2022-09-13T12:01:33;25.00;92.40
20929;DHT22;21895;47.072;15.132;2022-09-13T12:04:21;25.10;92.00
20929;DHT22;21895;47.072;15.132;2022-09-13T12:07:03;25.20;91.70
20929;DHT22;21895;47.072;15.132;2022-09-13T12:09:48;25.40;91.80
20929;DHT22;21895;47.072;15.132;2022-09-13T12:12:20;25.10;91.60
20929;DHT22;21895;47.072;15.132;2022-09-13T12:15:04;25.00;91.90
20929;DHT22;21895;47.072;15.132;2022-09-13T12:17:51;24.80;92.00
20929;DHT22;21895;47.072;15.132;2022-09-13T12:20:39;24.90;91.90
20929;DHT22;21895;47.072;15.132;2022-09-13T12:23:24;24.90;92.40
20929;DHT22;21895;47.072;15.132;2022-09-13T12:26:20;24.90;92.10
20929;DHT22;21895;47.072;15.132;2022-09-13T12:28:55;25.10;92.00
20929;DHT22;21895;47.072;15.132;2022-09-13T12:31:28;25.10;92.10
20929;DHT22;21895;47.072;15.132;2022-09-13T12:33:57;24.90;92.10
20929;DHT22;21895;47.072;15.132;2022-09-13T12:36:50;24.90;92.10
20929;DHT22;21895;47.072;15.132;2022-09-13T12:43:12;25.10;91.90
20929;DHT22;21895;47.072;15.132;2022-09-13T12:47:37;25.00;92.30
20929;DHT22;21895;47.072;15.132;2022-09-13T13:00:16;25.00;92.30
20929;DHT22;21895;47.072;15.132;2022-09-13T13:05:17;25.10;91.90
20929;DHT22;21895;47.072;15.132;2022-09-13T13:08:28;24.80;92.70
20929;DHT22;21895;47.072;15.132;2022-09-13T13:11:10;24.80;92.80
20929;DHT22;21895;47.072;15.132;2022-09-13T13:15:06;24.70;92.50
20929;DHT22;21895;47.072;15.132;2022-09-13T13:18:25;24.70;92.20
20929;DHT22;21895;47.072;15.132;2022-09-13T13:21:20;24.70;92.40
20929;DHT22;21895;47.072;15.132;2022-09-13T13:24:37;24.60;92.00
20929;DHT22;21895;47.072;15.132;2022-09-13T13:27:33;24.50;92.40
20929;DHT22;21895;47.072;15.132;2022-09-13T13:31:37;24.30;93.00
20929;DHT22;21895;47.072;15.132;2022-09-13T13:34:50;24.30;92.80
20929;DHT22;21895;47.072;15.132;2022-09-13T13:37:30;24.20;92.50
20929;DHT22;21895;47.072;15.132;2022-09-13T13:40:24;24.10;93.00
20929;DHT22;21895;47.072;15.132;2022-09-13T13:43:32;24.20;94.20
20929;DHT22;21895;47.072;15.132;2022-09-13T13:47:52;24.20;92.80
20929;DHT22;21895;47.072;15.132;2022-09-13T13:52:57;24.10;93.20
20929;DHT22;21895;47.072;15.132;2022-09-13T13:55:47;23.90;93.50
20929;DHT22;21895;47.072;15.132;2022-09-13T13:59:02;23.80;93.60
20929;DHT22;21895;47.072;15.132;2022-09-13T14:02:19;23.70;93.00
20929;DHT22;21895;47.072;15.132;2022-09-13T14:05:49;23.50;94.10
20929;DHT22;21895;47.072;15.132;2022-09-13T14:10:07;23.40;94.10
20929;DHT22;21895;47.072;15.132;2022-09-13T14:14:27;23.50;93.70
20929;DHT22;21895;47.072;15.132;2022-09-13T14:22:46;23.70;93.30
20929;DHT22;21895;47.072;15.132;2022-09-13T14:25:23;23.90;93.20
20929;DHT22;21895;47.072;15.132;2022-09-13T14:27:55;24.00;92.60
20929;DHT22;21895;47.072;15.132;2022-09-13T14:30:31;24.10;92.70
20929;DHT22;21895;47.072;15.132;2022-09-13T14:33:02;23.90;93.00
20929;DHT22;21895;47.072;15.132;2022-09-13T14:35:38;23.90;93.10
20929;DHT22;21895;47.072;15.132;2022-09-13T14:38:45;23.90;93.00
20929;DHT22;21895;47.072;15.132;2022-09-13T14:41:35;23.80;93.20
20929;DHT22;21895;47.072;15.132;2022-09-13T14:44:21;23.60;93.30
20929;DHT22;21895;47.072;15.132;2022-09-13T14:51:34;23.60;93.40
20929;DHT22;21895;47.072;15.132;2022-09-13T14:54:17;23.50;93.80
20929;DHT22;21895;47.072;15.132;2022-09-13T14:56:56;23.40;93.70
20929;DHT22;21895;47.072;15.132;2022-09-13T14:59:33;23.20;93.70
20929;DHT22;21895;47.072;15.132;2022-09-13T15:02:23;23.30;93.40
20929;DHT22;21895;47.072;15.132;2022-09-13T15:04:54;23.30;93.80
20929;DHT22;21895;47.072;15.132;2022-09-13T15:07:29;23.40;93.60
20929;DHT22;21895;47.072;15.132;2022-09-13T15:10:24;23.50;93.60
20929;DHT22;21895;47.072;15.132;2022-09-13T15:13:09;23.60;93.80
20929;DHT22;21895;47.072;15.132;2022-09-13T15:15:39;24.00;92.90
20929;DHT22;21895;47.072;15.132;2022-09-13T15:18:24;24.00;92.70
20929;DHT22;21895;47.072;15.132;2022-09-13T15:21:12;24.00;92.50
20929;DHT22;21895;47.072;15.132;2022-09-13T15:23:49;23.90;93.00
20929;DHT22;21895;47.072;15.132;2022-09-13T15:26:21;23.90;92.30
20929;DHT22;21895;47.072;15.132;2022-09-13T15:28:56;23.90;92.90
20929;DHT22;21895;47.072;15.132;2022-09-13T15:31:31;23.90;92.90
20929;DHT22;21895;47.072;15.132;2022-09-13T15:35:51;23.80;93.80
20929;DHT22;21895;47.072;15.132;2022-09-13T15:38:46;23.70;92.90
20929;DHT22;21895;47.072;15.132;2022-09-13T15:43:12;23.70;93.50
20929;DHT22;21895;47.072;15.132;2022-09-13T15:45:39;23.70;93.30
20929;DHT22;21895;47.072;15.132;2022-09-13T15:48:24;23.60;93.70
20929;DHT22;21895;47.072;15.132;2022-09-13T15:51:10;23.60;93.90
20929;DHT22;21895;47.072;15.132;2022-09-13T15:53:40;23.60;94.00
20929;DHT22;21895;47.072;15.132;2022-09-13T15:56:11;23.80;93.80
20929;DHT22;21895;47.072;15.132;2022-09-13T15:58:40;23.90;93.10
20929;DHT22;21895;47.072;15.132;2022-09-13T16:01:08;23.80;93.40
20929;DHT22;21895;47.072;15.132;2022-09-13T16:03:39;23.70;93.70
20929;DHT22;21895;47.072;15.132;2022-09-13T16:06:09;23.60;93.40
20929;DHT22;21895;47.072;15.132;2022-09-13T16:08:38;23.60;93.10
20929;DHT22;21895;47.072;15.132;2022-09-13T16:11:05;23.40;93.60
20929;DHT22;21895;47.072;15.132;2022-09-13T16:13:33;23.30;94.50
20929;DHT22;21895;47.072;15.132;2022-09-13T16:16:01;23.20;95.00
20929;DHT22;21895;47.072;15.132;2022-09-13T16:18:30;23.10;94.50
20929;DHT22;21895;47.072;15.132;2022-09-13T16:20:57;22.90;94.90
20929;DHT22;21895;47.072;15.132;2022-09-13T16:23:23;22.90;94.80
20929;DHT22;21895;47.072;15.132;2022-09-13T16:25:54;22.80;94.80
20929;DHT22;21895;47.072;15.132;2022-09-13T16:28:23;22.80;95.10
20929;DHT22;21895;47.072;15.132;2022-09-13T16:30:50;22.70;97.60
20929;DHT22;21895;47.072;15.132;2022-09-13T16:33:17;22.60;97.60
20929;DHT22;21895;47.072;15.132;2022-09-13T16:35:45;22.40;97.80
20929;DHT22;21895;47.072;15.132;2022-09-13T16:38:12;22.30;98.50
20929;DHT22;21895;47.072;15.132;2022-09-13T16:40:42;22.20;99.10
20929;DHT22;21895;47.072;15.132;2022-09-13T16:43:10;22.00;99.30
20929;DHT22;21895;47.072;15.132;2022-09-13T16:45:38;21.90;99.20
20929;DHT22;21895;47.072;15.132;2022-09-13T16:48:07;21.90;99.90
20929;DHT22;21895;47.072;15.132;2022-09-13T16:50:34;21.80;99.90
20929;DHT22;21895;47.072;15.132;2022-09-13T16:53:03;21.60;99.90
20929;DHT22;21895;47.072;15.132;2022-09-13T16:55:30;21.40;99.90
20929;DHT22;21895;47.072;15.132;2022-09-13T16:57:57;21.30;99.90
20929;DHT22;21895;47.072;15.132;2022-09-13T17:00:24;21.10;99.90
20929;DHT22;21895;47.072;15.132;2022-09-13T17:02:54;21.00;99.90
20929;DHT22;21895;47.072;15.132;2022-09-13T17:05:22;21.00;99.90
20929;DHT22;21895;47.072;15.132;2022-09-13T17:07:50;20.90;99.90
20929;DHT22;21895;47.072;15.132;2022-09-13T17:10:17;21.00;99.90
20929;DHT22;21895;47.072;15.132;2022-09-13T17:12:44;21.20;99.90
20929;DHT22;21895;47.072;15.132;2022-09-13T17:15:11;21.20;99.90
20929;DHT22;21895;47.072;15.132;2022-09-13T17:17:38;21.00;99.90
20929;DHT22;21895;47.072;15.132;2022-09-13T17:20:07;20.90;99.90
20929;DHT22;21895;47.072;15.132;2022-09-13T17:22:36;20.60;99.90
20929;DHT22;21895;47.072;15.132;2022-09-13T17:25:04;20.30;99.90
20929;DHT22;21895;47.072;15.132;2022-09-13T17:27:32;20.20;99.90
20929;DHT22;21895;47.072;15.132;2022-09-13T17:29:59;20.00;99.90
20929;DHT22;21895;47.072;15.132;2022-09-13T17:32:27;20.20;99.90
20929;DHT22;21895;47.072;15.132;2022-09-13T17:34:53;20.00;99.90
20929;DHT22;21895;47.072;15.132;2022-09-13T17:37:20;19.80;99.90
20929;DHT22;21895;47.072;15.132;2022-09-13T17:39:46;19.70;99.90
20929;DHT22;21895;47.072;15.132;2022-09-13T17:42:13;19.60;99.90
20929;DHT22;21895;47.072;15.132;2022-09-13T17:44:40;19.50;99.90
20929;DHT22;21895;47.072;15.132;2022-09-13T17:47:06;19.40;99.90
20929;DHT22;21895;47.072;15.132;2022-09-13T17:49:33;19.40;99.90
20929;DHT22;21895;47.072;15.132;2022-09-13T17:51:59;19.40;99.90
20929;DHT22;21895;47.072;15.132;2022-09-13T17:54:27;19.50;99.90
20929;DHT22;21895;47.072;15.132;2022-09-13T17:56:53;19.50;99.90
20929;DHT22;21895;47.072;15.132;2022-09-13T17:59:20;19.60;99.90
20929;DHT22;21895;47.072;15.132;2022-09-13T18:01:52;19.60;99.90
20929;DHT22;21895;47.072;15.132;2022-09-13T18:04:21;19.50;99.90
20929;DHT22;21895;47.072;15.132;2022-09-13T18:06:50;19.40;99.90
20929;DHT22;21895;47.072;15.132;2022-09-13T18:09:17;19.30;99.90
20929;DHT22;21895;47.072;15.132;2022-09-13T18:11:44;19.20;99.90
20929;DHT22;21895;47.072;15.132;2022-09-13T18:14:13;19.10;99.90
20929;DHT22;21895;47.072;15.132;2022-09-13T18:16:40;19.00;99.90
20929;DHT22;21895;47.072;15.132;2022-09-13T18:19:08;19.00;99.90
20929;DHT22;21895;47.072;15.132;2022-09-13T18:21:34;19.00;99.90
20929;DHT22;21895;47.072;15.132;2022-09-13T18:24:01;19.20;99.90
20929;DHT22;21895;47.072;15.132;2022-09-13T18:26:29;19.40;99.90
20929;DHT22;21895;47.072;15.132;2022-09-13T18:28:59;19.50;99.90
20929;DHT22;21895;47.072;15.132;2022-09-13T18:31:28;19.50;99.90
20929;DHT22;21895;47.072;15.132;2022-09-13T18:34:04;19.40;99.90
20929;DHT22;21895;47.072;15.132;2022-09-13T18:36:33;19.40;99.90